sensor_id;sensor_type;location;lat;lon;timestamp;pressure;altitude;pressure_sealevel;temperature;humidity
6150;BME280;3106;42.670;23.318;2022-11-06T00:01:39;93914.59;;;12.58;88.29
6150;BME280;3106;42.670;23.318;2022-11-06T00:04:06;93942.81;;;12.81;88.61
6150;BME280;3106;42.670;23.318;2022-11-06T00:06:33;93959.22;;;13.06;88.32
6150;BME280;3106;42.670;23.318;2022-11-06T00:09:17;93928.19;;;12.75;88.02
6150;BME280;3106;42.670;23.318;2022-11-06T00:11:48;93899.31;;;12.62;87.67
6150;BME280;3106;42.670;23.318;2022-11-06T00:14:16;93966.84;;;13.00;87.89
6150;BME280;3106;42.670;23.318;2022-11-06T00:16:45;93949.00;;;12.85;87.80
6150;BME280;3106;42.670;23.318;2022-11-06T00:19:12;93942.81;;;12.81;88.32
6150;BME280;3106;42.670;23.318;2022-11-06T00:21:40;93925.97;;;12.81;86.98
6150;BME280;3106;42.670;23.318;2022-11-06T00:24:10;93941.28;;;12.80;87.04
6150;BME280;3106;42.670;23.318;2022-11-06T00:26:38;93956.00;;;12.93;87.14
6150;BME280;3106;42.670;23.318;2022-11-06T00:29:07;93948.38;;;12.95;86.73
6150;BME280;3106;42.670;23.318;2022-11-06T00:31:35;93954.56;;;13.03;86.47
6150;BME280;3106;42.670;23.318;2022-11-06T00:34:03;93988.38;;;13.11;86.58
6150;BME280;3106;42.670;23.318;2022-11-06T00:36:31;93962.56;;;12.96;86.33
6150;BME280;3106;42.670;23.318;2022-11-06T00:38:58;93954.16;;;12.97;86.88
6150;BME280;3106;42.670;23.318;2022-11-06T00:41:26;93918.88;;;12.66;87.13
6150;BME280;3106;42.670;23.318;2022-11-06T00:43:56;93975.31;;;13.06;86.99
6150;BME280;3106;42.670;23.318;2022-11-06T00:46:25;93948.59;;;12.83;86.86
6150;BME280;3106;42.670;23.318;2022-11-06T00:48:52;93971.78;;;12.98;87.25
6150;BME280;3106;42.670;23.318;2022-11-06T00:51:21;93953.94;;;12.80;88.03
6150;BME280;3106;42.670;23.318;2022-11-06T00:53:53;93965.63;;;12.94;87.71
6150;BME280;3106;42.670;23.318;2022-11-06T00:56:20;93952.00;;;12.80;87.96
6150;BME280;3106;42.670;23.318;2022-11-06T00:58:47;93971.66;;;12.91;88.46
6150;BME280;3106;42.670;23.318;2022-11-06T01:01:17;93931.88;;;12.60;89.04
6150;BME280;3106;42.670;23.318;2022-11-06T01:03:47;93954.16;;;12.68;88.71
6150;BME280;3106;42.670;23.318;2022-11-06T01:06:16;93969.63;;;12.78;89.05
6150;BME280;3106;42.670;23.318;2022-11-06T01:08:44;93952.53;;;12.60;89.15
6150;BME280;3106;42.670;23.318;2022-11-06T01:11:15;93952.91;;;12.58;89.70
6150;BME280;3106;42.670;23.318;2022-11-06T01:13:43;93913.09;;;12.31;89.89
6150;BME280;3106;42.670;23.318;2022-11-06T01:16:13;93928.19;;;12.42;90.11
6150;BME280;3106;42.670;23.318;2022-11-06T01:18:41;93920.06;;;12.35;90.23
6150;BME280;3106;42.670;23.318;2022-11-06T01:21:12;93928.59;;;12.44;90.29
6150;BME280;3106;42.670;23.318;2022-11-06T01:23:40;93930.13;;;12.45;90.28
6150;BME280;3106;42.670;23.318;2022-11-06T01:26:09;93953.31;;;12.60;90.74
6150;BME280;3106;42.670;23.318;2022-11-06T01:28:37;93932.50;;;12.50;90.65
6150;BME280;3106;42.670;23.318;2022-11-06T01:31:05;93884.63;;;12.19;90.51
6150;BME280;3106;42.670;23.318;2022-11-06T01:33:32;93895.53;;;12.33;90.51
6150;BME280;3106;42.670;23.318;2022-11-06T01:36:00;93886.69;;;12.29;90.48
6150;BME280;3106;42.670;23.318;2022-11-06T01:38:39;93912.63;;;12.55;90.39
6150;BME280;3106;42.670;23.318;2022-11-06T01:41:07;93940.53;;;12.83;90.11
6150;BME280;3106;42.670;23.318;2022-11-06T01:43:45;93911.38;;;12.78;89.98
6150;BME280;3106;42.670;23.318;2022-11-06T01:46:13;93928.53;;;13.03;89.29
6150;BME280;3106;42.670;23.318;2022-11-06T01:51:27;93921.00;;;13.19;88.39
6150;BME280;3106;42.670;23.318;2022-11-06T01:53:57;93924.63;;;13.37;87.85
6150;BME280;3106;42.670;23.318;2022-11-06T01:56:24;93930.09;;;13.51;86.86
6150;BME280;3106;42.670;23.318;2022-11-06T01:58:52;93905.88;;;13.44;86.11
6150;BME280;3106;42.670;23.318;2022-11-06T02:01:21;93922.53;;;13.63;86.31
6150;BME280;3106;42.670;23.318;2022-11-06T02:03:52;93944.16;;;13.84;86.10
6150;BME280;3106;42.670;23.318;2022-11-06T02:06:22;93901.00;;;13.57;85.71
6150;BME280;3106;42.670;23.318;2022-11-06T02:08:50;93905.25;;;13.61;85.62
6150;BME280;3106;42.670;23.318;2022-11-06T02:11:20;93946.94;;;13.91;85.34
6150;BME280;3106;42.670;23.318;2022-11-06T02:14:00;93879.88;;;13.55;85.10
6150;BME280;3106;42.670;23.318;2022-11-06T02:16:35;93912.31;;;13.83;84.92
6150;BME280;3106;42.670;23.318;2022-11-06T02:19:23;93884.16;;;13.63;84.99
6150;BME280;3106;42.670;23.318;2022-11-06T02:22:01;93870.63;;;13.49;84.77
6150;BME280;3106;42.670;23.318;2022-11-06T02:24:49;93905.34;;;13.75;85.13
6150;BME280;3106;42.670;23.318;2022-11-06T02:27:23;93918.84;;;13.82;85.42
6150;BME280;3106;42.670;23.318;2022-11-06T02:29:56;93911.13;;;13.80;85.23
6150;BME280;3106;42.670;23.318;2022-11-06T02:32:28;93926.09;;;13.81;85.33
6150;BME280;3106;42.670;23.318;2022-11-06T02:34:59;93907.25;;;13.74;85.41
6150;BME280;3106;42.670;23.318;2022-11-06T02:37:33;93922.66;;;13.81;85.49
6150;BME280;3106;42.670;23.318;2022-11-06T02:40:05;93914.56;;;13.77;85.61
6150;BME280;3106;42.670;23.318;2022-11-06T02:42:37;93921.53;;;13.82;85.66
6150;BME280;3106;42.670;23.318;2022-11-06T02:45:08;93936.47;;;13.79;85.88
6150;BME280;3106;42.670;23.318;2022-11-06T02:47:37;93927.69;;;13.86;85.72
6150;BME280;3106;42.670;23.318;2022-11-06T02:50:08;93931.53;;;13.85;85.39
6150;BME280;3106;42.670;23.318;2022-11-06T02:52:40;93921.47;;;13.75;85.46
6150;BME280;3106;42.670;23.318;2022-11-06T02:55:10;93951.97;;;14.00;85.72
6150;BME280;3106;42.670;23.318;2022-11-06T02:57:44;93928.03;;;13.81;86.07
6150;BME280;3106;42.670;23.318;2022-11-06T03:00:15;93941.56;;;13.91;85.79
6150;BME280;3106;42.670;23.318;2022-11-06T03:02:46;93941.53;;;13.88;85.92
6150;BME280;3106;42.670;23.318;2022-11-06T03:05:18;93947.69;;;13.92;85.80
6150;BME280;3106;42.670;23.318;2022-11-06T03:07:49;93928.03;;;13.81;85.75
6150;BME280;3106;42.670;23.318;2022-11-06T03:10:18;93979.31;;;14.09;85.99
6150;BME280;3106;42.670;23.318;2022-11-06T03:12:54;93918.41;;;13.76;86.18
6150;BME280;3106;42.670;23.318;2022-11-06T03:15:27;93923.03;;;13.79;86.49
6150;BME280;3106;42.670;23.318;2022-11-06T03:18:03;93881.41;;;13.53;86.37
6150;BME280;3106;42.670;23.318;2022-11-06T03:20:36;93958.06;;;13.93;86.49
6150;BME280;3106;42.670;23.318;2022-11-06T03:23:10;93936.84;;;13.81;86.64
6150;BME280;3106;42.670;23.318;2022-11-06T03:25:43;93972.38;;;14.08;86.44
6150;BME280;3106;42.670;23.318;2022-11-06T03:28:18;93950.41;;;13.95;86.65
6150;BME280;3106;42.670;23.318;2022-11-06T03:30:52;93975.41;;;13.99;87.08
6150;BME280;3106;42.670;23.318;2022-11-06T03:33:24;93981.13;;;13.98;87.51
6150;BME280;3106;42.670;23.318;2022-11-06T03:35:59;93912.50;;;13.54;88.23
6150;BME280;3106;42.670;23.318;2022-11-06T03:38:32;93973.06;;;13.94;88.11
6150;BME280;3106;42.670;23.318;2022-11-06T03:41:03;93954.47;;;13.75;88.42
6150;BME280;3106;42.670;23.318;2022-11-06T03:43:35;93929.06;;;13.62;88.84
6150;BME280;3106;42.670;23.318;2022-11-06T03:46:05;93964.94;;;13.87;89.31
6150;BME280;3106;42.670;23.318;2022-11-06T03:48:35;93962.59;;;13.82;89.27
6150;BME280;3106;42.670;23.318;2022-11-06T03:51:08;93953.72;;;13.75;89.26
6150;BME280;3106;42.670;23.318;2022-11-06T03:53:43;93972.91;;;13.77;89.46
6150;BME280;3106;42.670;23.318;2022-11-06T03:56:16;93945.91;;;13.59;89.37
6150;BME280;3106;42.670;23.318;2022-11-06T03:58:47;93946.66;;;13.57;90.22
6150;BME280;3106;42.670;23.318;2022-11-06T04:01:17;93986.34;;;13.77;90.14
6150;BME280;3106;42.670;23.318;2022-11-06T04:03:51;93987.44;;;13.69;89.74
6150;BME280;3106;42.670;23.318;2022-11-06T04:06:22;93933.81;;;13.36;90.06
6150;BME280;3106;42.670;23.318;2022-11-06T04:08:53;93949.19;;;13.39;90.17
6150;BME280;3106;42.670;23.318;2022-11-06T04:11:40;93968.78;;;13.43;90.51
6150;BME280;3106;42.670;23.318;2022-11-06T04:14:44;93966.78;;;13.33;92.09
6150;BME280;3106;42.670;23.318;2022-11-06T04:17:14;93964.34;;;13.21;93.20
6150;BME280;3106;42.670;23.318;2022-11-06T04:19:45;93977.78;;;13.21;94.05
6150;BME280;3106;42.670;23.318;2022-11-06T04:22:28;93978.09;;;13.16;94.89
6150;BME280;3106;42.670;23.318;2022-11-06T04:25:03;93973.84;;;13.12;96.27
6150;BME280;3106;42.670;23.318;2022-11-06T04:28:01;93990.78;;;13.19;97.43
6150;BME280;3106;42.670;23.318;2022-11-06T04:30:34;93982.72;;;13.16;97.58
6150;BME280;3106;42.670;23.318;2022-11-06T04:33:08;93968.72;;;13.00;98.37
6150;BME280;3106;42.670;23.318;2022-11-06T04:35:44;93949.00;;;12.85;98.93
6150;BME280;3106;42.670;23.318;2022-11-06T04:38:24;93992.25;;;13.13;99.85
6150;BME280;3106;42.670;23.318;2022-11-06T04:40:57;93964.47;;;12.95;100.00
6150;BME280;3106;42.670;23.318;2022-11-06T04:43:33;93930.41;;;12.66;100.00
6150;BME280;3106;42.670;23.318;2022-11-06T04:46:05;93958.16;;;12.81;100.00
6150;BME280;3106;42.670;23.318;2022-11-06T04:48:34;93957.41;;;12.84;100.00
6150;BME280;3106;42.670;23.318;2022-11-06T04:51:08;93971.66;;;12.91;100.00
6150;BME280;3106;42.670;23.318;2022-11-06T04:53:38;93944.97;;;12.69;100.00
6150;BME280;3106;42.670;23.318;2022-11-06T04:56:08;93943.75;;;12.63;100.00
6150;BME280;3106;42.670;23.318;2022-11-06T04:58:36;93986.34;;;12.97;100.00
6150;BME280;3106;42.670;23.318;2022-11-06T05:01:05;93962.66;;;12.73;100.00
6150;BME280;3106;42.670;23.318;2022-11-06T05:03:32;94006.69;;;12.98;100.00
6150;BME280;3106;42.670;23.318;2022-11-06T05:05:59;93959.84;;;12.63;100.00
6150;BME280;3106;42.670;23.318;2022-11-06T05:08:26;93966.34;;;12.62;100.00
6150;BME280;3106;42.670;23.318;2022-11-06T05:10:52;93955.28;;;12.67;100.00
6150;BME280;3106;42.670;23.318;2022-11-06T05:13:19;94013.53;;;12.96;100.00
6150;BME280;3106;42.670;23.318;2022-11-06T05:15:47;93991.50;;;12.80;100.00
6150;BME280;3106;42.670;23.318;2022-11-06T05:18:16;94010.09;;;12.95;100.00
6150;BME280;3106;42.670;23.318;2022-11-06T05:20:43;94012.72;;;12.92;100.00
6150;BME280;3106;42.670;23.318;2022-11-06T05:23:10;94008.81;;;12.89;100.00
6150;BME280;3106;42.670;23.318;2022-11-06T05:25:37;93984.19;;;12.77;100.00
6150;BME280;3106;42.670;23.318;2022-11-06T05:28:06;94027.38;;;12.98;100.00
6150;BME280;3106;42.670;23.318;2022-11-06T05:30:34;94046.28;;;13.08;100.00
6150;BME280;3106;42.670;23.318;2022-11-06T05:33:02;93994.94;;;12.80;100.00
6150;BME280;3106;42.670;23.318;2022-11-06T05:35:31;93987.56;;;12.74;100.00
6150;BME280;3106;42.670;23.318;2022-11-06T05:37:58;94028.56;;;13.04;100.00
6150;BME280;3106;42.670;23.318;2022-11-06T05:40:25;93989.56;;;12.80;100.00
6150;BME280;3106;42.670;23.318;2022-11-06T05:42:52;94023.19;;;13.00;100.00
6150;BME280;3106;42.670;23.318;2022-11-06T05:45:20;94025.16;;;13.07;100.00
6150;BME280;3106;42.670;23.318;2022-11-06T05:47:47;93995.13;;;12.94;100.00
6150;BME280;3106;42.670;23.318;2022-11-06T05:50:14;94020.91;;;13.02;100.00
6150;BME280;3106;42.670;23.318;2022-11-06T05:52:42;94046.69;;;13.10;100.00
6150;BME280;3106;42.670;23.318;2022-11-06T05:55:10;94056.75;;;13.20;100.00
6150;BME280;3106;42.670;23.318;2022-11-06T05:57:37;94049.03;;;13.15;100.00
6150;BME280;3106;42.670;23.318;2022-11-06T06:00:05;94016.22;;;12.96;100.00
6150;BME280;3106;42.670;23.318;2022-11-06T06:02:33;94052.03;;;13.10;100.00
6150;BME280;3106;42.670;23.318;2022-11-06T06:05:02;94066.81;;;13.27;100.00
6150;BME280;3106;42.670;23.318;2022-11-06T06:07:30;94026.69;;;13.04;100.00
6150;BME280;3106;42.670;23.318;2022-11-06T06:10:02;94050.63;;;13.20;100.00
6150;BME280;3106;42.670;23.318;2022-11-06T06:12:31;94023.19;;;13.00;100.00
6150;BME280;3106;42.670;23.318;2022-11-06T06:14:59;94080.06;;;13.46;100.00
6150;BME280;3106;42.670;23.318;2022-11-06T06:17:26;94024.41;;;13.10;100.00
6150;BME280;3106;42.670;23.318;2022-11-06T06:19:53;94101.38;;;13.64;100.00
6150;BME280;3106;42.670;23.318;2022-11-06T06:22:20;94046.59;;;13.36;100.00
6150;BME280;3106;42.670;23.318;2022-11-06T06:24:47;94063.19;;;13.49;100.00
6150;BME280;3106;42.670;23.318;2022-11-06T06:27:19;94092.56;;;13.67;100.00
6150;BME280;3106;42.670;23.318;2022-11-06T06:29:46;94112.75;;;13.87;100.00
6150;BME280;3106;42.670;23.318;2022-11-06T06:32:13;94099.63;;;13.82;100.00
6150;BME280;3106;42.670;23.318;2022-11-06T06:34:41;94071.13;;;13.71;100.00
6150;BME280;3106;42.670;23.318;2022-11-06T06:37:08;94031.72;;;13.46;100.00
6150;BME280;3106;42.670;23.318;2022-11-06T06:39:35;94096.56;;;13.84;100.00
6150;BME280;3106;42.670;23.318;2022-11-06T06:42:04;94032.91;;;13.48;100.00
6150;BME280;3106;42.670;23.318;2022-11-06T06:44:33;94090.47;;;13.87;100.00
6150;BME280;3106;42.670;23.318;2022-11-06T06:47:00;94094.28;;;13.86;99.73
6150;BME280;3106;42.670;23.318;2022-11-06T06:49:27;94107.84;;;14.00;99.55
6150;BME280;3106;42.670;23.318;2022-11-06T06:51:54;94131.41;;;14.13;99.55
6150;BME280;3106;42.670;23.318;2022-11-06T06:54:21;94069.66;;;13.77;99.08
6150;BME280;3106;42.670;23.318;2022-11-06T06:56:51;94083.66;;;13.96;98.74
6150;BME280;3106;42.670;23.318;2022-11-06T06:59:18;94098.00;;;14.11;98.56
6150;BME280;3106;42.670;23.318;2022-11-06T07:01:46;94112.28;;;14.18;98.15
6150;BME280;3106;42.670;23.318;2022-11-06T07:04:13;94155.13;;;14.41;98.13
6150;BME280;3106;42.670;23.318;2022-11-06T07:06:40;94131.91;;;14.22;97.71
6150;BME280;3106;42.670;23.318;2022-11-06T07:09:07;94132.72;;;14.30;97.61
6150;BME280;3106;42.670;23.318;2022-11-06T07:11:34;94123.50;;;14.27;97.40
6150;BME280;3106;42.670;23.318;2022-11-06T07:14:00;94106.88;;;14.18;96.87
6150;BME280;3106;42.670;23.318;2022-11-06T07:16:27;94146.75;;;14.53;96.80
6150;BME280;3106;42.670;23.318;2022-11-06T07:18:58;94146.06;;;14.59;96.72
6150;BME280;3106;42.670;23.318;2022-11-06T07:21:25;94145.72;;;14.64;96.19
6150;BME280;3106;42.670;23.318;2022-11-06T07:23:51;94146.16;;;14.73;96.13
6150;BME280;3106;42.670;23.318;2022-11-06T07:26:18;94152.69;;;14.76;95.98
6150;BME280;3106;42.670;23.318;2022-11-06T07:28:45;94156.59;;;14.82;95.91
6150;BME280;3106;42.670;23.318;2022-11-06T07:31:12;94156.94;;;14.77;95.64
6150;BME280;3106;42.670;23.318;2022-11-06T07:33:39;94141.50;;;14.70;95.82
6150;BME280;3106;42.670;23.318;2022-11-06T07:36:10;94094.78;;;14.38;95.49
6150;BME280;3106;42.670;23.318;2022-11-06T07:38:38;94138.44;;;14.68;95.63
6150;BME280;3106;42.670;23.318;2022-11-06T07:41:07;94141.47;;;14.67;95.25
6150;BME280;3106;42.670;23.318;2022-11-06T07:43:34;94139.94;;;14.66;96.07
6150;BME280;3106;42.670;23.318;2022-11-06T07:46:03;94172.75;;;14.85;95.81
6150;BME280;3106;42.670;23.318;2022-11-06T07:48:32;94172.81;;;14.92;95.31
6150;BME280;3106;42.670;23.318;2022-11-06T07:51:01;94145.44;;;14.80;94.98
6150;BME280;3106;42.670;23.318;2022-11-06T07:53:30;94190.69;;;15.17;94.87
6150;BME280;3106;42.670;23.318;2022-11-06T07:55:58;94175.97;;;15.05;94.49
6150;BME280;3106;42.670;23.318;2022-11-06T07:58:25;94176.72;;;15.02;94.38
6150;BME280;3106;42.670;23.318;2022-11-06T08:00:53;94116.53;;;14.73;94.39
6150;BME280;3106;42.670;23.318;2022-11-06T08:03:26;94156.81;;;15.16;93.84
6150;BME280;3106;42.670;23.318;2022-11-06T08:05:56;94197.03;;;15.46;93.47
6150;BME280;3106;42.670;23.318;2022-11-06T08:08:24;94186.56;;;15.37;92.98
6150;BME280;3106;42.670;23.318;2022-11-06T08:10:53;94121.69;;;14.96;93.34
6150;BME280;3106;42.670;23.318;2022-11-06T08:13:24;94183.47;;;15.28;93.69
6150;BME280;3106;42.670;23.318;2022-11-06T08:15:52;94183.84;;;15.30;93.96
6150;BME280;3106;42.670;23.318;2022-11-06T08:18:19;94206.97;;;15.35;94.77
6150;BME280;3106;42.670;23.318;2022-11-06T08:20:46;94176.81;;;15.19;94.86
6150;BME280;3106;42.670;23.318;2022-11-06T08:23:13;94190.03;;;15.31;94.63
6150;BME280;3106;42.670;23.318;2022-11-06T08:25:40;94212.78;;;15.47;95.19
6150;BME280;3106;42.670;23.318;2022-11-06T08:28:09;94194.25;;;15.32;95.75
6150;BME280;3106;42.670;23.318;2022-11-06T08:30:36;94174.91;;;15.19;95.97
6150;BME280;3106;42.670;23.318;2022-11-06T08:33:05;94182.25;;;15.26;96.21
6150;BME280;3106;42.670;23.318;2022-11-06T08:35:33;94175.28;;;15.14;96.03
6150;BME280;3106;42.670;23.318;2022-11-06T08:38:00;94200.41;;;15.32;97.27
6150;BME280;3106;42.670;23.318;2022-11-06T08:40:28;94145.47;;;14.90;98.30
6150;BME280;3106;42.670;23.318;2022-11-06T08:42:58;94201.50;;;15.24;99.11
6150;BME280;3106;42.670;23.318;2022-11-06T08:45:26;94195.28;;;15.17;100.00
6150;BME280;3106;42.670;23.318;2022-11-06T08:48:08;94135.78;;;14.75;100.00
6150;BME280;3106;42.670;23.318;2022-11-06T08:50:38;94206.00;;;15.10;100.00
6150;BME280;3106;42.670;23.318;2022-11-06T08:53:09;94212.97;;;15.14;100.00
6150;BME280;3106;42.670;23.318;2022-11-06T08:55:40;94165.88;;;14.88;100.00
6150;BME280;3106;42.670;23.318;2022-11-06T08:58:11;94216.91;;;15.27;100.00
6150;BME280;3106;42.670;23.318;2022-11-06T09:00:40;94175.22;;;15.07;100.00
6150;BME280;3106;42.670;23.318;2022-11-06T09:03:14;94220.84;;;15.40;100.00
6150;BME280;3106;42.670;23.318;2022-11-06T09:05:42;94196.56;;;15.33;100.00
6150;BME280;3106;42.670;23.318;2022-11-06T09:08:10;94192.63;;;15.24;100.00
6150;BME280;3106;42.670;23.318;2022-11-06T09:10:40;94201.59;;;15.38;100.00
6150;BME280;3106;42.670;23.318;2022-11-06T09:13:08;94234.38;;;15.51;100.00
6150;BME280;3106;42.670;23.318;2022-11-06T09:15:40;94195.31;;;15.24;100.00
6150;BME280;3106;42.670;23.318;2022-11-06T09:18:09;94241.34;;;15.55;100.00
6150;BME280;3106;42.670;23.318;2022-11-06T09:20:53;94186.78;;;15.11;100.00
6150;BME280;3106;42.670;23.318;2022-11-06T09:23:20;94209.94;;;15.19;100.00
6150;BME280;3106;42.670;23.318;2022-11-06T09:25:48;94194.50;;;15.13;100.00
6150;BME280;3106;42.670;23.318;2022-11-06T09:28:18;94229.69;;;15.37;100.00
6150;BME280;3106;42.670;23.318;2022-11-06T09:30:58;94236.25;;;15.40;100.00
6150;BME280;3106;42.670;23.318;2022-11-06T09:33:28;94181.94;;;14.77;100.00
6150;BME280;3106;42.670;23.318;2022-11-06T09:35:55;94229.00;;;15.01;100.00
6150;BME280;3106;42.670;23.318;2022-11-06T09:38:22;94240.59;;;15.05;100.00
6150;BME280;3106;42.670;23.318;2022-11-06T09:40:52;94177.16;;;14.57;100.00
6150;BME280;3106;42.670;23.318;2022-11-06T09:43:34;94245.16;;;15.01;100.00
6150;BME280;3106;42.670;23.318;2022-11-06T09:46:21;94228.53;;;14.85;100.00
6150;BME280;3106;42.670;23.318;2022-11-06T09:48:54;94225.34;;;14.76;100.00
6150;BME280;3106;42.670;23.318;2022-11-06T09:51:51;94212.63;;;14.69;100.00
6150;BME280;3106;42.670;23.318;2022-11-06T09:54:41;94171.66;;;14.43;100.00
6150;BME280;3106;42.670;23.318;2022-11-06T09:57:18;94179.75;;;14.43;100.00
6150;BME280;3106;42.670;23.318;2022-11-06T09:59:47;94234.66;;;14.82;100.00
6150;BME280;3106;42.670;23.318;2022-11-06T10:02:26;94206.31;;;14.51;100.00
6150;BME280;3106;42.670;23.318;2022-11-06T10:05:01;94238.09;;;14.79;100.00
6150;BME280;3106;42.670;23.318;2022-11-06T10:07:33;94250.00;;;14.81;100.00
6150;BME280;3106;42.670;23.318;2022-11-06T10:10:04;94243.47;;;14.79;100.00
6150;BME280;3106;42.670;23.318;2022-11-06T10:12:39;94214.06;;;14.60;100.00
6150;BME280;3106;42.670;23.318;2022-11-06T10:15:19;94194.75;;;14.47;100.00
6150;BME280;3106;42.670;23.318;2022-11-06T10:17:57;94189.78;;;14.49;100.00
6150;BME280;3106;42.670;23.318;2022-11-06T10:20:30;94215.34;;;14.73;100.00
6150;BME280;3106;42.670;23.318;2022-11-06T10:23:14;94239.28;;;14.88;100.00
6150;BME280;3106;42.670;23.318;2022-11-06T10:25:54;94237.75;;;14.84;100.00
6150;BME280;3106;42.670;23.318;2022-11-06T10:28:36;94228.91;;;14.87;100.00
6150;BME280;3106;42.670;23.318;2022-11-06T10:31:10;94225.88;;;14.92;100.00
6150;BME280;3106;42.670;23.318;2022-11-06T10:33:51;94222.78;;;14.90;100.00
6150;BME280;3106;42.670;23.318;2022-11-06T10:36:24;94225.16;;;14.98;100.00
6150;BME280;3106;42.670;23.318;2022-11-06T10:38:53;94246.09;;;15.18;100.00
6150;BME280;3106;42.670;23.318;2022-11-06T10:41:26;94200.84;;;14.88;100.00
6150;BME280;3106;42.670;23.318;2022-11-06T10:43:56;94199.41;;;14.97;100.00
6150;BME280;3106;42.670;23.318;2022-11-06T10:46:29;94220.22;;;15.07;100.00
6150;BME280;3106;42.670;23.318;2022-11-06T10:49:01;94246.59;;;15.34;100.00
6150;BME280;3106;42.670;23.318;2022-11-06T10:51:50;94204.78;;;15.01;100.00
6150;BME280;3106;42.670;23.318;2022-11-06T10:54:33;94244.53;;;15.21;100.00
6150;BME280;3106;42.670;23.318;2022-11-06T11:00:27;94263.13;;;15.29;100.00
6150;BME280;3106;42.670;23.318;2022-11-06T11:03:21;94197.81;;;14.93;100.00
6150;BME280;3106;42.670;23.318;2022-11-06T11:25:38;94233.69;;;15.10;100.00
6150;BME280;3106;42.670;23.318;2022-11-06T11:28:21;94174.22;;;14.76;100.00
6150;BME280;3106;42.670;23.318;2022-11-06T11:31:29;94173.56;;;14.89;100.00
6150;BME280;3106;42.670;23.318;2022-11-06T11:34:17;94155.09;;;14.88;100.00
6150;BME280;3106;42.670;23.318;2022-11-06T12:11:25;94225.44;;;15.36;100.00
6150;BME280;3106;42.670;23.318;2022-11-06T12:14:28;94174.41;;;15.00;100.00
6150;BME280;3106;42.670;23.318;2022-11-06T12:17:14;94139.59;;;14.71;100.00
6150;BME280;3106;42.670;23.318;2022-11-06T12:33:40;94156.13;;;14.69;100.00
6150;BME280;3106;42.670;23.318;2022-11-06T12:41:39;94232.94;;;15.10;100.00
6150;BME280;3106;42.670;23.318;2022-11-06T12:44:18;94158.72;;;14.59;100.00
6150;BME280;3106;42.670;23.318;2022-11-06T12:47:50;94202.75;;;14.84;100.00
6150;BME280;3106;42.670;23.318;2022-11-06T13:36:53;94202.56;;;14.59;99.27
6150;BME280;3106;42.670;23.318;2022-11-06T13:39:39;94175.22;;;14.54;99.33
6150;BME280;3106;42.670;23.318;2022-11-06T13:42:49;94216.50;;;14.75;99.81
6150;BME280;3106;42.670;23.318;2022-11-06T13:45:42;94240.13;;;14.96;99.64
6150;BME280;3106;42.670;23.318;2022-11-06T13:57:02;94179.03;;;14.53;98.96
6150;BME280;3106;42.670;23.318;2022-11-06T14:03:20;94235.53;;;15.00;98.80
6150;BME280;3106;42.670;23.318;2022-11-06T14:06:15;94223.53;;;14.90;99.23
6150;BME280;3106;42.670;23.318;2022-11-06T14:53:37;94288.47;;;14.82;93.07
6150;BME280;3106;42.670;23.318;2022-11-06T14:56:10;94264.44;;;14.63;93.04
6150;BME280;3106;42.670;23.318;2022-11-06T14:58:53;94245.00;;;14.40;92.78
6150;BME280;3106;42.670;23.318;2022-11-06T15:01:26;94300.63;;;14.69;93.02
6150;BME280;3106;42.670;23.318;2022-11-06T15:03:56;94241.44;;;14.29;93.20
6150;BME280;3106;42.670;23.318;2022-11-06T15:06:39;94307.16;;;14.68;93.18
6150;BME280;3106;42.670;23.318;2022-11-06T15:09:13;94227.88;;;14.15;93.10
6150;BME280;3106;42.670;23.318;2022-11-06T15:11:58;94314.09;;;14.69;93.63
6150;BME280;3106;42.670;23.318;2022-11-06T15:14:52;94305.97;;;14.62;93.26
6150;BME280;3106;42.670;23.318;2022-11-06T15:17:26;94239.38;;;14.15;94.04
6150;BME280;3106;42.670;23.318;2022-11-06T15:20:19;94253.63;;;14.19;93.78
6150;BME280;3106;42.670;23.318;2022-11-06T15:22:58;94290.72;;;14.36;93.71
6150;BME280;3106;42.670;23.318;2022-11-06T15:32:02;94244.94;;;14.00;93.98
6150;BME280;3106;42.670;23.318;2022-11-06T15:34:50;94283.59;;;14.18;93.76
6150;BME280;3106;42.670;23.318;2022-11-06T15:37:41;94326.22;;;14.52;93.85
6150;BME280;3106;42.670;23.318;2022-11-06T15:40:26;94305.31;;;14.39;93.86
6150;BME280;3106;42.670;23.318;2022-11-06T15:42:59;94307.25;;;14.38;93.76
6150;BME280;3106;42.670;23.318;2022-11-06T15:45:29;94265.34;;;14.04;94.02
6150;BME280;3106;42.670;23.318;2022-11-06T15:48:19;94290.59;;;14.26;93.79
6150;BME280;3106;42.670;23.318;2022-11-06T15:50:59;94311.03;;;14.34;93.88
6150;BME280;3106;42.670;23.318;2022-11-06T15:53:28;94254.13;;;13.95;93.84
6150;BME280;3106;42.670;23.318;2022-11-06T15:56:11;94269.53;;;14.02;93.97
6150;BME280;3106;42.670;23.318;2022-11-06T15:59:08;94295.94;;;14.22;93.76
6150;BME280;3106;42.670;23.318;2022-11-06T16:01:37;94295.41;;;14.13;94.12
6150;BME280;3106;42.670;23.318;2022-11-06T16:04:23;94302.41;;;14.18;93.98
6150;BME280;3106;42.670;23.318;2022-11-06T16:06:53;94271.72;;;13.93;93.17
6150;BME280;3106;42.670;23.318;2022-11-06T16:09:25;94268.31;;;13.96;92.98
6150;BME280;3106;42.670;23.318;2022-11-06T16:12:10;94289.91;;;14.03;92.67
6150;BME280;3106;42.670;23.318;2022-11-06T16:14:52;94335.69;;;14.39;91.96
6150;BME280;3106;42.670;23.318;2022-11-06T16:17:32;94361.56;;;14.51;92.48
6150;BME280;3106;42.670;23.318;2022-11-06T16:23:19;94274.75;;;13.88;93.06
6150;BME280;3106;42.670;23.318;2022-11-06T16:25:48;94347.94;;;14.37;92.89
6150;BME280;3106;42.670;23.318;2022-11-06T16:28:20;94296.41;;;14.02;92.96
6150;BME280;3106;42.670;23.318;2022-11-06T16:30:52;94332.47;;;14.27;93.22
6150;BME280;3106;42.670;23.318;2022-11-06T16:33:52;94367.03;;;14.58;93.34
6150;BME280;3106;42.670;23.318;2022-11-06T16:36:49;94336.31;;;14.26;93.55
6150;BME280;3106;42.670;23.318;2022-11-06T16:45:33;94311.09;;;14.08;94.53
6150;BME280;3106;42.670;23.318;2022-11-06T16:48:32;94381.28;;;14.58;95.04
6150;BME280;3106;42.670;23.318;2022-11-06T16:51:07;94332.06;;;14.25;94.92
6150;BME280;3106;42.670;23.318;2022-11-06T16:53:54;94356.75;;;14.34;95.52
6150;BME280;3106;42.670;23.318;2022-11-06T16:56:32;94369.19;;;14.45;95.88
6150;BME280;3106;42.670;23.318;2022-11-06T16:59:07;94299.56;;;14.07;95.89